createdAt,value
2019-03-26T00:01:44.604Z,4.50
2019-03-26T00:04:14.934Z,4.60
2019-03-26T00:06:45.696Z,4.60
2019-03-26T00:09:35.550Z,4.50
2019-03-26T00:12:05.913Z,4.60
2019-03-26T00:14:36.236Z,4.60
2019-03-26T00:17:06.962Z,4.50
2019-03-26T00:19:37.672Z,4.40
2019-03-26T00:22:08.075Z,4.40
2019-03-26T00:24:39.345Z,4.40
2019-03-26T00:27:10.049Z,4.40
2019-03-26T00:29:40.420Z,4.40
2019-03-26T00:32:11.108Z,4.40
2019-03-26T00:34:41.720Z,4.50
2019-03-26T00:37:12.848Z,4.50
2019-03-26T00:39:43.792Z,4.50
2019-03-26T00:42:14.214Z,4.50
2019-03-26T00:44:45.654Z,4.50
2019-03-26T00:47:16.264Z,4.50
2019-03-26T00:49:46.662Z,4.40
2019-03-26T00:52:17.297Z,4.40
2019-03-26T00:54:47.719Z,4.40
2019-03-26T00:57:18.046Z,4.40
2019-03-26T00:59:48.724Z,4.40
2019-03-26T01:02:19.103Z,4.40
2019-03-26T01:04:49.735Z,4.30
2019-03-26T01:07:20.443Z,4.30
2019-03-26T01:10:13.779Z,4.30
2019-03-26T01:12:44.139Z,4.20
2019-03-26T01:15:14.463Z,4.10
2019-03-26T01:17:44.863Z,4.10
2019-03-26T01:20:15.596Z,4.00
2019-03-26T01:22:46.687Z,4.00
2019-03-26T01:25:17.034Z,4.00
2019-03-26T01:27:47.731Z,4.00
2019-03-26T01:30:18.218Z,4.00
2019-03-26T01:32:48.897Z,4.00
2019-03-26T01:35:19.958Z,4.00
2019-03-26T01:37:51.081Z,3.90
2019-03-26T01:40:21.731Z,3.90
2019-03-26T01:42:52.459Z,3.90
2019-03-26T01:45:23.151Z,3.80
2019-03-26T01:47:53.854Z,3.80
2019-03-26T01:50:24.222Z,3.70
2019-03-26T01:52:54.962Z,3.70
2019-03-26T01:55:25.611Z,3.60
2019-03-26T01:57:56.269Z,3.60
2019-03-26T02:00:26.994Z,3.60
2019-03-26T02:02:58.029Z,3.60
2019-03-26T02:05:28.694Z,3.50
2019-03-26T02:08:00.123Z,3.50
2019-03-26T02:10:30.474Z,3.50
2019-03-26T02:13:01.170Z,3.50
2019-03-26T02:15:32.353Z,3.50
2019-03-26T02:18:02.964Z,3.40
2019-03-26T02:20:33.655Z,3.40
2019-03-26T02:23:04.016Z,3.40
2019-03-26T02:25:34.739Z,3.30
2019-03-26T02:28:05.365Z,3.40
2019-03-26T02:30:35.752Z,3.30
2019-03-26T02:33:06.460Z,3.30
2019-03-26T02:35:37.225Z,3.20
2019-03-26T02:38:07.651Z,3.20
2019-03-26T02:40:38.334Z,3.20
2019-03-26T02:43:08.687Z,3.10
2019-03-26T02:45:39.084Z,3.10
2019-03-26T02:48:10.150Z,3.10
2019-03-26T02:50:40.501Z,3.00
2019-03-26T02:53:10.826Z,3.00
2019-03-26T02:55:41.545Z,3.00
2019-03-26T02:58:11.940Z,2.90
2019-03-26T03:00:42.628Z,2.90
2019-03-26T03:03:13.395Z,2.90
2019-03-26T03:05:43.778Z,2.80
2019-03-26T03:08:14.279Z,2.80
2019-03-26T03:10:44.943Z,2.80
2019-03-26T03:13:15.264Z,2.90
2019-03-26T03:15:46.011Z,2.90
2019-03-26T03:18:16.629Z,2.90
2019-03-26T03:20:48.133Z,3.00
2019-03-26T03:23:18.552Z,3.00
2019-03-26T03:25:49.400Z,3.00
2019-03-26T03:28:19.886Z,3.00
2019-03-26T03:30:50.256Z,3.00
2019-03-26T03:33:20.679Z,3.00
2019-03-26T03:35:52.929Z,3.10
2019-03-26T03:38:23.051Z,3.00
2019-03-26T03:40:53.777Z,3.10
2019-03-26T03:43:24.106Z,3.00
2019-03-26T03:45:55.245Z,3.00
2019-03-26T03:48:25.623Z,3.00
2019-03-26T03:50:56.635Z,3.00
2019-03-26T03:53:26.981Z,3.00
2019-03-26T03:55:57.339Z,3.00
2019-03-26T03:58:27.706Z,3.00
2019-03-26T04:00:58.030Z,2.90
2019-03-26T04:03:28.433Z,2.90
2019-03-26T04:06:08.888Z,3.00
2019-03-26T04:08:32.374Z,3.00
2019-03-26T04:11:03.203Z,3.00
2019-03-26T04:13:33.853Z,3.10
2019-03-26T04:16:04.889Z,3.10
2019-03-26T04:18:35.482Z,3.00
2019-03-26T04:21:05.862Z,3.00
2019-03-26T04:23:37.292Z,2.80
2019-03-26T04:26:08.381Z,2.80
2019-03-26T04:28:39.619Z,2.80
2019-03-26T04:31:10.272Z,2.70
2019-03-26T04:33:40.585Z,2.60
2019-03-26T04:36:24.511Z,2.60
2019-03-26T04:38:43.756Z,2.60
2019-03-26T04:41:14.412Z,2.60
2019-03-26T04:43:44.790Z,2.50
2019-03-26T04:46:15.279Z,2.50
2019-03-26T04:48:46.316Z,2.40
2019-03-26T04:51:17.240Z,2.50
2019-03-26T04:53:47.889Z,2.40
2019-03-26T04:56:18.533Z,2.40
2019-03-26T04:58:49.641Z,2.30
2019-03-26T05:01:19.985Z,2.40
2019-03-26T05:03:50.623Z,2.40
2019-03-26T05:06:21.612Z,2.50
2019-03-26T05:08:51.911Z,2.50
2019-03-26T05:11:22.285Z,2.50
2019-03-26T05:13:53.069Z,2.60
2019-03-26T05:16:23.520Z,2.70
2019-03-26T05:18:54.291Z,2.80
2019-03-26T05:21:25.276Z,2.90
2019-03-26T05:23:56.029Z,3.00
2019-03-26T05:26:26.748Z,3.10
2019-03-26T05:28:57.087Z,3.10
2019-03-26T05:31:27.531Z,3.20
2019-03-26T05:33:58.263Z,3.40
2019-03-26T05:36:28.931Z,3.50
2019-03-26T05:38:59.919Z,3.60
2019-03-26T05:41:30.622Z,3.60
2019-03-26T05:44:01.267Z,3.70
2019-03-26T05:46:31.596Z,3.80
2019-03-26T05:49:01.948Z,3.80
2019-03-26T05:51:32.692Z,3.90
2019-03-26T05:54:03.747Z,3.90
2019-03-26T05:56:34.127Z,3.90
2019-03-26T05:59:04.589Z,3.90
2019-03-26T06:01:35.211Z,3.90
2019-03-26T06:04:05.866Z,3.80
2019-03-26T06:06:36.220Z,3.80
2019-03-26T06:09:06.771Z,3.80
2019-03-26T06:11:37.826Z,3.80
2019-03-26T06:14:08.802Z,3.80
2019-03-26T06:16:39.165Z,3.80
2019-03-26T06:19:09.504Z,3.90
2019-03-26T06:21:40.162Z,3.80
2019-03-26T06:24:10.794Z,3.90
2019-03-26T06:26:41.112Z,3.90
2019-03-26T06:29:11.463Z,4.10
2019-03-26T06:31:41.850Z,4.10
2019-03-26T06:34:12.236Z,4.20
2019-03-26T06:36:42.922Z,4.30
2019-03-26T06:39:14.049Z,4.40
2019-03-26T06:41:45.128Z,4.50
2019-03-26T06:44:15.477Z,4.50
2019-03-26T06:46:46.495Z,4.70
2019-03-26T06:49:17.559Z,4.70
2019-03-26T06:51:48.192Z,4.80
2019-03-26T06:54:18.782Z,4.90
2019-03-26T06:56:49.373Z,5.00
2019-03-26T06:59:19.734Z,5.10
2019-03-26T07:01:50.095Z,5.10
2019-03-26T07:04:20.576Z,5.20
2019-03-26T07:06:51.292Z,5.20
2019-03-26T07:09:21.678Z,5.30
2019-03-26T07:11:52.045Z,5.30
2019-03-26T07:14:22.770Z,5.40
2019-03-26T07:16:53.514Z,5.50
2019-03-26T07:19:24.210Z,5.50
2019-03-26T07:21:54.939Z,5.60
2019-03-26T07:24:25.379Z,5.60
2019-03-26T07:26:55.739Z,5.70
2019-03-26T07:29:26.366Z,5.80
2019-03-26T07:31:56.743Z,5.80
2019-03-26T07:34:27.491Z,5.70
2019-03-26T07:36:58.485Z,5.70
2019-03-26T07:39:28.879Z,5.70
2019-03-26T07:41:59.231Z,5.80
2019-03-26T07:44:29.581Z,5.80
2019-03-26T07:47:00.314Z,5.80
2019-03-26T07:49:31.497Z,5.80
2019-03-26T07:52:02.336Z,5.80
2019-03-26T07:54:32.927Z,5.90
2019-03-26T07:57:03.364Z,5.90
2019-03-26T07:59:34.075Z,6.00
2019-03-26T08:02:04.709Z,6.00
2019-03-26T08:04:35.448Z,6.20
2019-03-26T08:07:05.797Z,6.40
2019-03-26T08:09:37.154Z,6.60
2019-03-26T08:12:08.366Z,6.70
2019-03-26T08:14:39.028Z,6.90
2019-03-26T08:17:10.007Z,6.90
2019-03-26T08:19:40.693Z,7.00
2019-03-26T08:22:11.133Z,7.00
2019-03-26T08:24:42.249Z,7.20
2019-03-26T08:27:12.941Z,7.30
2019-03-26T08:29:43.294Z,7.30
2019-03-26T08:32:14.360Z,7.30
2019-03-26T08:34:46.710Z,7.30
2019-03-26T08:37:17.249Z,7.40
2019-03-26T08:39:47.622Z,7.30
2019-03-26T08:42:18.498Z,7.50
2019-03-26T08:44:49.194Z,7.50
2019-03-26T08:47:19.892Z,7.60
2019-03-26T08:49:50.289Z,7.70
2019-03-26T08:52:20.727Z,7.90
2019-03-26T08:54:51.078Z,8.10
2019-03-26T08:57:21.911Z,8.00
2019-03-26T08:59:53.082Z,8.10
2019-03-26T09:02:23.437Z,8.10
2019-03-26T09:04:53.791Z,8.00
2019-03-26T09:07:24.163Z,8.00
2019-03-26T09:09:54.894Z,8.00
2019-03-26T09:12:25.623Z,8.00
2019-03-26T09:14:55.978Z,7.90
2019-03-26T09:17:26.338Z,7.80
2019-03-26T09:19:56.702Z,7.90
2019-03-26T09:22:27.425Z,7.80
2019-03-26T09:24:58.192Z,7.90
2019-03-26T09:27:28.581Z,8.00
2019-03-26T09:29:59.001Z,8.10
2019-03-26T09:32:29.675Z,8.30
2019-03-26T09:35:00.847Z,8.30
2019-03-26T09:37:31.274Z,8.30
2019-03-26T09:40:02.407Z,8.10
2019-03-26T09:42:32.762Z,8.10
2019-03-26T09:45:04.149Z,8.20
2019-03-26T09:47:34.582Z,8.10
2019-03-26T09:50:08.513Z,8.10
2019-03-26T09:52:38.982Z,8.20
2019-03-26T09:55:09.744Z,8.30
2019-03-26T09:57:40.122Z,8.50
2019-03-26T10:00:12.381Z,8.80
2019-03-26T10:02:43.548Z,8.90
2019-03-26T10:05:14.046Z,8.90
2019-03-26T10:07:44.397Z,8.90
2019-03-26T10:10:15.176Z,8.80
2019-03-26T10:12:45.893Z,8.70
2019-03-26T10:15:16.480Z,8.80
2019-03-26T10:17:47.111Z,8.70
2019-03-26T10:20:17.468Z,8.60
2019-03-26T10:22:47.851Z,8.40
2019-03-26T10:25:18.521Z,8.30
2019-03-26T10:27:49.155Z,8.30
2019-03-26T10:30:34.706Z,8.40
2019-03-26T10:33:05.675Z,8.50
2019-03-26T10:35:36.040Z,8.70
2019-03-26T10:38:06.589Z,8.90
2019-03-26T10:40:39.191Z,8.90
2019-03-26T10:43:09.532Z,8.90
2019-03-26T10:45:40.324Z,8.90
2019-03-26T10:48:10.680Z,9.00
2019-03-26T10:50:41.030Z,9.10
2019-03-26T10:53:11.534Z,9.10
2019-03-26T10:55:42.357Z,9.00
2019-03-26T10:58:12.742Z,8.90
2019-03-26T11:00:43.483Z,9.00
2019-03-26T11:03:14.726Z,9.10
2019-03-26T11:05:45.882Z,9.20
2019-03-26T11:08:16.734Z,9.30
2019-03-26T11:10:47.748Z,9.20
2019-03-26T11:13:19.689Z,9.10
2019-03-26T11:15:50.106Z,9.30
2019-03-26T11:18:20.462Z,9.40
2019-03-26T11:21:01.801Z,9.40
2019-03-26T11:23:23.271Z,9.50
2019-03-26T11:25:53.985Z,9.70
2019-03-26T11:28:25.388Z,9.80
2019-03-26T11:30:56.436Z,9.90
2019-03-26T11:33:27.141Z,9.70
2019-03-26T11:35:57.500Z,9.50
2019-03-26T11:38:28.179Z,9.40
2019-03-26T11:40:58.541Z,9.40
2019-03-26T11:43:28.896Z,9.30
2019-03-26T11:45:59.796Z,9.40
2019-03-26T11:48:30.203Z,9.40
2019-03-26T11:51:00.560Z,9.30
2019-03-26T11:53:31.778Z,9.10
2019-03-26T11:56:02.647Z,8.90
2019-03-26T11:58:33.272Z,8.70
2019-03-26T12:01:04.421Z,8.60
2019-03-26T12:03:35.027Z,8.60
2019-03-26T12:06:05.392Z,8.60
2019-03-26T12:08:35.798Z,8.60
2019-03-26T12:11:06.149Z,8.60
2019-03-26T12:13:36.501Z,8.60
2019-03-26T12:16:26.993Z,8.60
2019-03-26T12:18:57.348Z,8.60
2019-03-26T12:21:27.792Z,8.60
2019-03-26T12:23:58.270Z,8.50
2019-03-26T12:26:28.655Z,8.40
2019-03-26T12:28:59.299Z,8.00
2019-03-26T12:31:29.656Z,7.80
2019-03-26T12:34:00.061Z,7.70
2019-03-26T12:36:39.984Z,7.50
2019-03-26T12:39:02.824Z,7.50
2019-03-26T12:41:33.169Z,7.50
2019-03-26T12:44:03.556Z,7.50
2019-03-26T12:46:34.160Z,7.50
2019-03-26T12:49:05.050Z,7.50
2019-03-26T12:51:35.708Z,7.40
2019-03-26T12:54:06.106Z,7.40
2019-03-26T12:56:36.820Z,7.50
2019-03-26T12:59:07.590Z,7.70
2019-03-26T13:01:37.939Z,8.00
2019-03-26T13:04:12.764Z,8.40
2019-03-26T13:06:40.648Z,8.60
2019-03-26T13:09:11.598Z,8.70
2019-03-26T13:11:42.359Z,8.70
2019-03-26T13:14:12.735Z,8.60
2019-03-26T13:16:43.430Z,8.70
2019-03-26T13:19:14.720Z,8.70
2019-03-26T13:21:45.421Z,8.50
2019-03-26T13:24:16.265Z,8.40
2019-03-26T13:26:48.976Z,8.50
2019-03-26T13:29:19.013Z,8.50
2019-03-26T13:31:49.663Z,8.50
2019-03-26T13:34:20.382Z,8.30
2019-03-26T13:36:51.137Z,8.30
2019-03-26T13:39:21.763Z,8.30
2019-03-26T13:41:52.187Z,8.30
2019-03-26T13:44:22.787Z,8.30
2019-03-26T13:46:54.798Z,8.30
2019-03-26T13:49:25.148Z,8.40
2019-03-26T13:51:55.528Z,8.50
2019-03-26T13:54:26.278Z,8.50
2019-03-26T13:56:56.972Z,8.70
2019-03-26T13:59:27.655Z,8.80
2019-03-26T14:01:57.997Z,9.00
2019-03-26T14:04:28.723Z,9.20
2019-03-26T14:07:02.221Z,9.40
2019-03-26T14:09:33.422Z,9.40
2019-03-26T14:12:03.825Z,9.50
2019-03-26T14:14:34.351Z,9.70
2019-03-26T14:17:05.688Z,9.50
2019-03-26T14:19:36.262Z,9.40
2019-03-26T14:22:06.634Z,9.10
2019-03-26T14:24:36.959Z,8.90
2019-03-26T14:27:07.652Z,8.60
2019-03-26T14:29:38.249Z,8.30
2019-03-26T14:32:08.616Z,8.10
2019-03-26T14:34:39.300Z,8.00
2019-03-26T14:37:09.641Z,7.90
2019-03-26T14:39:40.040Z,7.70
2019-03-26T14:42:10.389Z,7.60
2019-03-26T14:44:41.422Z,7.60
2019-03-26T14:47:12.159Z,7.60
2019-03-26T14:49:42.764Z,7.60
2019-03-26T14:52:13.530Z,7.60
2019-03-26T14:54:44.252Z,7.80
2019-03-26T14:57:14.849Z,7.80
2019-03-26T14:59:45.258Z,7.80
2019-03-26T15:02:15.631Z,7.80
2019-03-26T15:04:46.286Z,8.00
2019-03-26T15:07:17.206Z,8.00
2019-03-26T15:09:47.565Z,8.20
2019-03-26T15:12:18.687Z,8.30
2019-03-26T15:14:49.336Z,8.30
2019-03-26T15:17:19.685Z,8.40
2019-03-26T15:19:50.371Z,8.60
2019-03-26T15:22:21.845Z,8.80
2019-03-26T15:24:52.299Z,9.10
2019-03-26T15:27:23.002Z,9.10
2019-03-26T15:29:53.747Z,9.10
2019-03-26T15:32:24.102Z,9.10
2019-03-26T15:34:54.454Z,9.30
2019-03-26T15:37:25.172Z,9.30
2019-03-26T15:39:55.846Z,9.50
2019-03-26T15:42:26.255Z,9.60
2019-03-26T15:44:56.782Z,9.70
2019-03-26T15:47:27.472Z,9.70
2019-03-26T15:49:57.858Z,9.50
2019-03-26T15:52:28.245Z,9.40
2019-03-26T15:54:58.614Z,9.30
2019-03-26T15:57:28.983Z,9.30
2019-03-26T15:59:59.347Z,9.40
2019-03-26T16:02:49.159Z,9.40
2019-03-26T16:05:19.961Z,9.50
2019-03-26T16:07:50.452Z,9.50
2019-03-26T16:10:21.177Z,9.50
2019-03-26T16:12:51.904Z,9.50
2019-03-26T16:15:22.505Z,9.50
2019-03-26T16:17:52.862Z,9.40
2019-03-26T16:20:23.326Z,9.30
2019-03-26T16:22:54.379Z,9.10
2019-03-26T16:25:25.421Z,9.10
2019-03-26T16:27:57.215Z,9.10
2019-03-26T16:30:30.483Z,9.10
2019-03-26T16:33:00.373Z,9.10
2019-03-26T16:35:31.012Z,9.10
2019-03-26T16:38:04.257Z,9.10
2019-03-26T16:40:34.598Z,9.00
2019-03-26T16:43:04.991Z,9.00
2019-03-26T16:45:35.698Z,9.00
2019-03-26T16:48:06.061Z,8.90
2019-03-26T16:50:36.810Z,8.80
2019-03-26T16:53:07.625Z,8.80
2019-03-26T16:55:38.316Z,8.80
2019-03-26T16:58:08.944Z,8.70
2019-03-26T17:00:39.706Z,8.60
2019-03-26T17:03:10.755Z,8.60
2019-03-26T17:05:41.476Z,8.50
2019-03-26T17:08:12.216Z,8.60
2019-03-26T17:10:42.936Z,8.50
2019-03-26T17:13:13.272Z,8.50
2019-03-26T17:15:44.422Z,8.50
2019-03-26T17:18:14.770Z,8.50
2019-03-26T17:20:45.370Z,8.40
2019-03-26T17:23:16.123Z,8.50
2019-03-26T17:25:46.512Z,8.40
2019-03-26T17:28:16.904Z,8.40
2019-03-26T17:30:47.237Z,8.40
2019-03-26T17:33:17.780Z,8.30
2019-03-26T17:35:48.501Z,8.20
2019-03-26T17:38:18.865Z,8.20
2019-03-26T17:40:49.566Z,8.20
2019-03-26T17:43:20.659Z,8.10
2019-03-26T17:45:51.385Z,8.10
2019-03-26T17:48:21.741Z,8.10
2019-03-26T17:50:52.587Z,8.00
2019-03-26T17:53:23.621Z,8.00
2019-03-26T17:55:54.549Z,8.00
2019-03-26T17:58:24.971Z,8.00
2019-03-26T18:00:55.612Z,8.00
2019-03-26T18:03:27.145Z,8.00
2019-03-26T18:05:57.603Z,7.90
2019-03-26T18:08:28.322Z,7.90
2019-03-26T18:10:59.039Z,7.90
2019-03-26T18:13:30.030Z,7.80
2019-03-26T18:16:00.443Z,7.80
2019-03-26T18:18:31.040Z,7.80
2019-03-26T18:21:01.627Z,7.70
2019-03-26T18:23:32.314Z,7.70
2019-03-26T18:26:02.666Z,7.70
2019-03-26T18:28:33.414Z,7.70
2019-03-26T18:31:03.819Z,7.70
2019-03-26T18:33:34.190Z,7.60
2019-03-26T18:36:04.903Z,7.60
2019-03-26T18:38:35.564Z,7.70
2019-03-26T18:41:06.491Z,7.70
2019-03-26T18:43:36.894Z,7.70
2019-03-26T18:46:07.212Z,7.60
2019-03-26T18:48:37.843Z,7.60
2019-03-26T18:51:08.822Z,7.60
2019-03-26T18:53:39.557Z,7.60
2019-03-26T18:56:10.182Z,7.70
2019-03-26T18:58:40.656Z,7.70
2019-03-26T19:01:11.365Z,7.60
2019-03-26T19:03:41.689Z,7.60
2019-03-26T19:06:12.405Z,7.60
2019-03-26T19:08:43.087Z,7.60
2019-03-26T19:11:13.467Z,7.70
2019-03-26T19:13:44.168Z,7.60
2019-03-26T19:16:14.568Z,7.60
2019-03-26T19:18:44.895Z,7.50
2019-03-26T19:21:15.650Z,7.50
2019-03-26T19:23:46.269Z,7.60
2019-03-26T19:26:16.913Z,7.50
2019-03-26T19:28:47.270Z,7.50
2019-03-26T19:31:17.664Z,7.50
2019-03-26T19:33:48.313Z,7.50
2019-03-26T19:36:18.669Z,7.50
2019-03-26T19:38:49.540Z,7.50
2019-03-26T19:41:20.310Z,7.50
2019-03-26T19:43:50.989Z,7.50
2019-03-26T19:46:21.594Z,7.50
2019-03-26T19:48:52.271Z,7.50
2019-03-26T19:51:22.965Z,7.50
2019-03-26T19:53:53.650Z,7.50
2019-03-26T19:56:24.382Z,7.50
2019-03-26T19:58:55.039Z,7.50
2019-03-26T20:01:25.805Z,7.50
2019-03-26T20:03:56.609Z,7.40
2019-03-26T20:06:27.542Z,7.40
2019-03-26T20:08:57.898Z,7.40
2019-03-26T20:11:28.371Z,7.40
2019-03-26T20:13:59.539Z,7.40
2019-03-26T20:16:41.346Z,7.40
2019-03-26T20:19:02.481Z,7.40
2019-03-26T20:21:32.982Z,7.40
2019-03-26T20:24:03.792Z,7.40
2019-03-26T20:26:34.446Z,7.50
2019-03-26T20:29:04.805Z,7.50
2019-03-26T20:31:35.169Z,7.40
2019-03-26T20:34:06.297Z,7.50
2019-03-26T20:36:36.618Z,7.50
2019-03-26T20:39:08.773Z,7.50
2019-03-26T20:41:39.379Z,7.40
2019-03-26T20:44:09.731Z,7.40
2019-03-26T20:46:40.094Z,7.40
2019-03-26T20:49:11.185Z,7.40
2019-03-26T20:51:41.912Z,7.40
2019-03-26T20:54:12.718Z,7.40
2019-03-26T20:56:43.880Z,7.40
2019-03-26T20:59:14.560Z,7.30
2019-03-26T21:01:45.654Z,7.30
2019-03-26T21:04:16.704Z,7.40
2019-03-26T21:06:47.032Z,7.30
2019-03-26T21:09:17.504Z,7.30
2019-03-26T21:11:47.832Z,7.30
2019-03-26T21:14:18.204Z,7.20
2019-03-26T21:16:49.269Z,7.10
2019-03-26T21:19:19.613Z,7.00
2019-03-26T21:21:52.905Z,7.00
2019-03-26T21:24:22.385Z,7.00
2019-03-26T21:26:52.718Z,6.90
2019-03-26T21:29:23.778Z,6.90
2019-03-26T21:31:54.527Z,6.90
2019-03-26T21:34:30.380Z,6.90
2019-03-26T21:36:57.037Z,6.90
2019-03-26T21:39:27.385Z,6.90
2019-03-26T21:41:57.765Z,6.90
2019-03-26T21:44:28.108Z,6.90
2019-03-26T21:46:58.815Z,6.90
2019-03-26T21:49:29.406Z,6.80
2019-03-26T21:51:59.739Z,6.80
2019-03-26T21:54:30.056Z,6.70
2019-03-26T21:57:00.434Z,6.70
2019-03-26T21:59:31.085Z,6.60
2019-03-26T22:02:01.436Z,6.60
2019-03-26T22:04:32.452Z,6.60
2019-03-26T22:07:03.193Z,6.50
2019-03-26T22:09:33.516Z,6.40
2019-03-26T22:12:03.870Z,6.40
2019-03-26T22:14:34.591Z,6.30
2019-03-26T22:17:05.011Z,6.20
2019-03-26T22:19:35.377Z,6.20
2019-03-26T22:22:06.161Z,6.20
2019-03-26T22:24:36.516Z,6.10
2019-03-26T22:27:07.563Z,6.00
2019-03-26T22:29:37.932Z,6.00
2019-03-26T22:32:08.280Z,5.90
2019-03-26T22:34:39.018Z,5.90
2019-03-26T22:37:09.762Z,5.90
2019-03-26T22:39:40.279Z,5.90
2019-03-26T22:42:10.606Z,5.80
2019-03-26T22:45:00.400Z,5.80
2019-03-26T22:47:30.736Z,5.80
2019-03-26T22:50:01.736Z,5.70
2019-03-26T22:52:32.380Z,5.70
2019-03-26T22:55:02.731Z,5.70
2019-03-26T22:57:33.756Z,5.70
2019-03-26T23:00:18.841Z,5.70
2019-03-26T23:02:49.673Z,5.70
2019-03-26T23:05:20.018Z,5.60
2019-03-26T23:07:51.066Z,5.60
2019-03-26T23:10:21.461Z,5.60
2019-03-26T23:12:51.846Z,5.50
2019-03-26T23:15:25.834Z,5.50
2019-03-26T23:17:56.208Z,5.50
2019-03-26T23:20:26.901Z,5.40
2019-03-26T23:22:57.630Z,5.40
2019-03-26T23:25:28.293Z,5.30
2019-03-26T23:27:58.620Z,5.30
2019-03-26T23:30:29.340Z,5.30
2019-03-26T23:33:00.077Z,5.20
2019-03-26T23:35:30.516Z,5.20
2019-03-26T23:38:01.545Z,5.10
2019-03-26T23:40:31.914Z,5.10
2019-03-26T23:43:02.288Z,5.10
2019-03-26T23:45:33.316Z,5.00
2019-03-26T23:48:03.976Z,5.00
2019-03-26T23:50:34.694Z,5.00
2019-03-26T23:53:05.342Z,5.00
2019-03-26T23:55:35.706Z,5.00
2019-03-26T23:58:06.397Z,5.00
